Beaver Cove, Canada
Current Conditions -  °F | °C
As of 11:00 PM on Friday 19 Dec 2014 (Local Time) from CYZT Reporting Station
Rain Showers Rain Showers  
Wind Chill: 35°   Ceiling: 5400
Heat Index: 43°   Visibility: 15mi
Dew Point: 41°   Wind: 17mph
Humidity: 93%   Direction: 110°ESE
Pressure: 29.49"   Gusts: NA
Location:  50.53°N, 126.87°W
Report Text: CYZT 200700Z 11015KT 15SM -SHRA SCT033 OVC054 06/05 A2949 RMK SC3SC5 SLP985
Loading
Personal Weather Stations






























Interactive Weather Map New forecast layout! Learn more

10-Day Weather Forecast

Advertisements
Track Severe Weather on mobile